Whisper — ZCIV7 — position and weather

sailwx.info

Track history (hours):
 
Tides and Currents Weather Stations Pressure Air Temp Water Temp Dewpoint Dewpoint Depression Visibility Wind Speed Wind Dir Waves Ship Positions

Whisper

Last reported at 2014-Jul-22 18:31 UTC. Time now 2014-Jul-22 19:29 UTC.
Position N 41°29' W 071°19'.

Length 37 m; draft 3 m.

Type: Sailing vessel. MMSI: 319911000.

Date/timePositionNaut miles runAvg speedWind from/ knotsBaromVisibWave heightAir tempDewpointWater temp
2014-Jul-22 18:31N 41°29' W 071°19'0 0.0
2014-Jul-22 13:08N 41°29' W 071°19'0 0.0
2014-Jul-22 12:33N 41°29' W 071°19'0 0.0
2014-Jul-22 11:32N 41°29' W 071°19'0 0.0
2014-Jul-22 10:33N 41°29' W 071°19'0 0.0
2014-Jul-22 09:34N 41°29' W 071°19'0 0.0
2014-Jul-22 08:34N 41°29' W 071°19'0 0.0
2014-Jul-22 07:33N 41°29' W 071°19'0 0.0
2014-Jul-22 06:33N 41°29' W 071°19'0 0.0
2014-Jul-22 05:34N 41°29' W 071°19'0 0.0
2014-Jul-22 04:24N 41°29' W 071°19'0 0.0
2014-Jul-22 03:33N 41°29' W 071°19'0 0.0
2014-Jul-22 02:34N 41°29' W 071°19'0 0.0
2014-Jul-22 01:34N 41°29' W 071°19'0 0.0
2014-Jul-22 00:33N 41°29' W 071°19'0 0.0
2014-Jul-21 23:32N 41°29' W 071°19'0 0.0
2014-Jul-21 21:32N 41°29' W 071°19'0 0.0
2014-Jul-21 20:20N 41°29' W 071°19'0 0.0
2014-Jul-21 20:12N 41°29' W 071°19'0 0.0
2014-Jul-21 19:31N 41°29' W 071°19'0 0.0
2014-Jul-21 17:32N 41°29' W 071°19'0 0.0
2014-Jul-21 15:23N 41°29' W 071°19'  
2014-Jul-18 17:34N 41°14' W 071°50'4 4.2
2014-Jul-18 16:34N 41°17' W 071°55'3 3.3
2014-Jul-18 15:33N 41°20' W 071°55'0 0.0
2014-Jul-18 14:34N 41°20' W 071°55'0 0.0
2014-Jul-18 13:34N 41°20' W 071°55'0 0.0
2014-Jul-18 12:34N 41°20' W 071°55'0 0.0
2014-Jul-18 11:34N 41°20' W 071°55'0 0.0
2014-Jul-18 10:34N 41°20' W 071°55'0 0.0
2014-Jul-18 09:34N 41°20' W 071°55'0 0.0
2014-Jul-18 08:34N 41°20' W 071°55'0 0.0
2014-Jul-18 07:34N 41°20' W 071°55'0 0.0
2014-Jul-18 06:34N 41°20' W 071°55'0 0.0
2014-Jul-18 05:34N 41°20' W 071°55'0 0.0
2014-Jul-18 04:34N 41°20' W 071°55'0 0.0
2014-Jul-18 03:34N 41°20' W 071°55'0 0.0
2014-Jul-18 02:34N 41°20' W 071°55'0 0.0
2014-Jul-18 01:34N 41°20' W 071°55'0 0.0
2014-Jul-18 00:34N 41°20' W 071°55'0 0.0
2014-Jul-17 23:34N 41°20' W 071°55'0 0.0
2014-Jul-17 22:34N 41°20' W 071°55'0 0.0
2014-Jul-17 21:34N 41°20' W 071°55'0 0.0
2014-Jul-17 20:34N 41°20' W 071°55'0 0.0
2014-Jul-17 19:34N 41°20' W 071°55'0 0.0
2014-Jul-17 18:34N 41°20' W 071°55'0 0.0
2014-Jul-17 17:34N 41°20' W 071°55'0 0.0
2014-Jul-17 16:34N 41°20' W 071°55'0 0.0
2014-Jul-17 15:34N 41°20' W 071°55'0 0.0
2014-Jul-17 14:34N 41°20' W 071°55'6 5.7
2014-Jul-17 13:33N 41°18' W 071°47'10 9.9
2014-Jul-17 12:34N 41°20' W 071°34'9 9.2
2014-Jul-17 11:34N 41°26' W 071°24'5 5.4
2014-Jul-17 10:34N 41°29' W 071°19'0 0.0
2014-Jul-17 09:33N 41°29' W 071°19'0 0.0
2014-Jul-17 08:34N 41°29' W 071°19'0 0.0
2014-Jul-17 07:34N 41°29' W 071°19'0 0.0
2014-Jul-17 06:33N 41°29' W 071°19'0 0.0
2014-Jul-17 05:33N 41°29' W 071°19'0 0.0
2014-Jul-17 04:34N 41°29' W 071°19'0 0.0
2014-Jul-17 03:33N 41°29' W 071°19'0 0.0
2014-Jul-17 02:32N 41°29' W 071°19'0 0.0
2014-Jul-17 01:33N 41°29' W 071°19'0 0.0
2014-Jul-17 00:25N 41°29' W 071°19'0 0.0
2014-Jul-16 22:34N 41°29' W 071°19'0 0.0
2014-Jul-16 14:07N 41°29' W 071°19'0 0.0
2014-Jul-16 08:33N 41°29' W 071°19'0 0.0
2014-Jul-16 07:33N 41°29' W 071°19'0 0.0
2014-Jul-16 05:29N 41°29' W 071°19'0 0.0
2014-Jul-16 04:06N 41°29' W 071°19'0 0.0
2014-Jul-16 03:33N 41°29' W 071°19'0 0.0
2014-Jul-16 00:33N 41°29' W 071°19'0 0.0
2014-Jul-15 18:23N 41°29' W 071°19'0 0.0
2014-Jul-15 15:33N 41°29' W 071°19'0 0.0
2014-Jul-15 14:32N 41°29' W 071°19'0 0.0
2014-Jul-15 13:32N 41°29' W 071°19'0 0.0
2014-Jul-15 11:11N 41°29' W 071°19'0 0.0
2014-Jul-15 09:29N 41°29' W 071°19'0 0.0
2014-Jul-15 07:07N 41°29' W 071°19'0 0.0
2014-Jul-15 06:30N 41°29' W 071°19'0 0.0
2014-Jul-15 05:32N 41°29' W 071°19'0 0.0
2014-Jul-15 04:32N 41°29' W 071°19'0 0.0
2014-Jul-15 03:33N 41°29' W 071°19'0 0.0
2014-Jul-15 02:30N 41°29' W 071°19'0 0.0
2014-Jul-14 21:12N 41°29' W 071°19'0 0.0
2014-Jul-14 20:20N 41°29' W 071°19'0 0.0
2014-Jul-14 19:32N 41°29' W 071°19'0 0.0
2014-Jul-14 18:33N 41°29' W 071°19'0 0.0
2014-Jul-14 17:34N 41°29' W 071°19'0 0.0
2014-Jul-14 16:14N 41°29' W 071°19'0 0.0
2014-Jul-14 12:33N 41°29' W 071°19'0 0.0
2014-Jul-14 11:06N 41°29' W 071°19'0 0.0
2014-Jul-14 04:26N 41°29' W 071°19'0 0.0
2014-Jul-14 03:33N 41°29' W 071°19'0 0.0
2014-Jul-14 02:33N 41°29' W 071°19'0 0.0
2014-Jul-14 01:33N 41°29' W 071°19'0 0.0
2014-Jul-14 00:33N 41°29' W 071°19'0 0.0
2014-Jul-13 23:30N 41°29' W 071°19'0 0.1
2014-Jul-13 22:33N 41°29' W 071°19'9 9.4
2014-Jul-13 21:33N 41°22' W 071°27'1111.0
2014-Jul-13 20:34N 41°19' W 071°42'10 9.8
2014-Jul-13 19:34N 41°20' W 071°55'2 2.3
2014-Jul-13 18:34N 41°17' W 071°54'7 7.3
2014-Jul-13 17:34N 41°14' W 071°45'8 7.6
2014-Jul-13 16:34N 41°18' W 071°54'2 2.0
2014-Jul-13 15:33N 41°20' W 071°55'0 0.0
2014-Jul-13 14:33N 41°20' W 071°55'0 0.0
2014-Jul-13 13:34N 41°20' W 071°55'0 0.0
2014-Jul-13 12:33N 41°20' W 071°55'0 0.0
2014-Jul-13 11:33N 41°20' W 071°55'0 0.0
2014-Jul-13 10:33N 41°20' W 071°55'0 0.0
2014-Jul-13 09:34N 41°20' W 071°55'0 0.0
2014-Jul-13 08:33N 41°20' W 071°55'0 0.0
2014-Jul-13 07:33N 41°20' W 071°55'0 0.0
2014-Jul-13 06:33N 41°20' W 071°55'0 0.0
2014-Jul-13 05:33N 41°20' W 071°55'0 0.0
2014-Jul-13 04:33N 41°20' W 071°55'0 0.0
2014-Jul-13 03:34N 41°20' W 071°55'0 0.0
2014-Jul-13 02:33N 41°20' W 071°55'0 0.0
2014-Jul-13 01:33N 41°20' W 071°55'0 0.0
2014-Jul-13 00:34N 41°20' W 071°55'0 0.0
2014-Jul-12 23:34N 41°20' W 071°55'0 0.0
2014-Jul-12 22:34N 41°20' W 071°55'0 0.0
2014-Jul-12 21:34N 41°20' W 071°55'3 2.7
2014-Jul-12 20:34N 41°17' W 071°55'0 0.1
2014-Jul-12 19:34N 41°17' W 071°55'0 0.0
2014-Jul-12 18:34N 41°17' W 071°55'  
Track history (hours):
 
Tides and Currents Weather Stations Pressure Air Temp Water Temp Dewpoint Dewpoint Depression Visibility Wind Speed Wind Dir Waves Ship Positions

Whisper

Last reported at 2014-Jul-22 18:31 UTC. Time now 2014-Jul-22 19:29 UTC.
Position N 41°29' W 071°19'.

Length 37 m; draft 3 m.

Type: Sailing vessel. MMSI: 319911000.

Date/timePositionNaut miles runAvg speedWind from/ knotsBaromVisibWave heightAir tempDewpointWater temp
2014-Jul-22 18:31N 41°29' W 071°19'0 0.0
2014-Jul-22 13:08N 41°29' W 071°19'0 0.0
2014-Jul-22 12:33N 41°29' W 071°19'0 0.0
2014-Jul-22 11:32N 41°29' W 071°19'0 0.0
2014-Jul-22 10:33N 41°29' W 071°19'0 0.0
2014-Jul-22 09:34N 41°29' W 071°19'0 0.0
2014-Jul-22 08:34N 41°29' W 071°19'0 0.0
2014-Jul-22 07:33N 41°29' W 071°19'0 0.0
2014-Jul-22 06:33N 41°29' W 071°19'0 0.0
2014-Jul-22 05:34N 41°29' W 071°19'0 0.0
2014-Jul-22 04:24N 41°29' W 071°19'0 0.0
2014-Jul-22 03:33N 41°29' W 071°19'0 0.0
2014-Jul-22 02:34N 41°29' W 071°19'0 0.0
2014-Jul-22 01:34N 41°29' W 071°19'0 0.0
2014-Jul-22 00:33N 41°29' W 071°19'0 0.0
2014-Jul-21 23:32N 41°29' W 071°19'0 0.0
2014-Jul-21 21:32N 41°29' W 071°19'0 0.0
2014-Jul-21 20:20N 41°29' W 071°19'0 0.0
2014-Jul-21 20:12N 41°29' W 071°19'0 0.0
2014-Jul-21 19:31N 41°29' W 071°19'0 0.0
2014-Jul-21 17:32N 41°29' W 071°19'0 0.0
2014-Jul-21 15:23N 41°29' W 071°19'  
2014-Jul-18 17:34N 41°14' W 071°50'4 4.2
2014-Jul-18 16:34N 41°17' W 071°55'3 3.3
2014-Jul-18 15:33N 41°20' W 071°55'0 0.0
2014-Jul-18 14:34N 41°20' W 071°55'0 0.0
2014-Jul-18 13:34N 41°20' W 071°55'0 0.0
2014-Jul-18 12:34N 41°20' W 071°55'0 0.0
2014-Jul-18 11:34N 41°20' W 071°55'0 0.0
2014-Jul-18 10:34N 41°20' W 071°55'0 0.0
2014-Jul-18 09:34N 41°20' W 071°55'0 0.0
2014-Jul-18 08:34N 41°20' W 071°55'0 0.0
2014-Jul-18 07:34N 41°20' W 071°55'0 0.0
2014-Jul-18 06:34N 41°20' W 071°55'0 0.0
2014-Jul-18 05:34N 41°20' W 071°55'0 0.0
2014-Jul-18 04:34N 41°20' W 071°55'0 0.0
2014-Jul-18 03:34N 41°20' W 071°55'0 0.0
2014-Jul-18 02:34N 41°20' W 071°55'0 0.0
2014-Jul-18 01:34N 41°20' W 071°55'0 0.0
2014-Jul-18 00:34N 41°20' W 071°55'0 0.0
2014-Jul-17 23:34N 41°20' W 071°55'0 0.0
2014-Jul-17 22:34N 41°20' W 071°55'0 0.0
2014-Jul-17 21:34N 41°20' W 071°55'0 0.0
2014-Jul-17 20:34N 41°20' W 071°55'0 0.0
2014-Jul-17 19:34N 41°20' W 071°55'0 0.0
2014-Jul-17 18:34N 41°20' W 071°55'0 0.0
2014-Jul-17 17:34N 41°20' W 071°55'0 0.0
2014-Jul-17 16:34N 41°20' W 071°55'0 0.0
2014-Jul-17 15:34N 41°20' W 071°55'0 0.0
2014-Jul-17 14:34N 41°20' W 071°55'6 5.7
2014-Jul-17 13:33N 41°18' W 071°47'10 9.9
2014-Jul-17 12:34N 41°20' W 071°34'9 9.2
2014-Jul-17 11:34N 41°26' W 071°24'5 5.4
2014-Jul-17 10:34N 41°29' W 071°19'0 0.0
2014-Jul-17 09:33N 41°29' W 071°19'0 0.0
2014-Jul-17 08:34N 41°29' W 071°19'0 0.0
2014-Jul-17 07:34N 41°29' W 071°19'0 0.0
2014-Jul-17 06:33N 41°29' W 071°19'0 0.0
2014-Jul-17 05:33N 41°29' W 071°19'0 0.0
2014-Jul-17 04:34N 41°29' W 071°19'0 0.0
2014-Jul-17 03:33N 41°29' W 071°19'0 0.0
2014-Jul-17 02:32N 41°29' W 071°19'0 0.0
2014-Jul-17 01:33N 41°29' W 071°19'0 0.0
2014-Jul-17 00:25N 41°29' W 071°19'0 0.0
2014-Jul-16 22:34N 41°29' W 071°19'0 0.0
2014-Jul-16 14:07N 41°29' W 071°19'0 0.0
2014-Jul-16 08:33N 41°29' W 071°19'0 0.0
2014-Jul-16 07:33N 41°29' W 071°19'0 0.0
2014-Jul-16 05:29N 41°29' W 071°19'0 0.0
2014-Jul-16 04:06N 41°29' W 071°19'0 0.0
2014-Jul-16 03:33N 41°29' W 071°19'0 0.0
2014-Jul-16 00:33N 41°29' W 071°19'0 0.0
2014-Jul-15 18:23N 41°29' W 071°19'0 0.0
2014-Jul-15 15:33N 41°29' W 071°19'0 0.0
2014-Jul-15 14:32N 41°29' W 071°19'0 0.0
2014-Jul-15 13:32N 41°29' W 071°19'0 0.0
2014-Jul-15 11:11N 41°29' W 071°19'0 0.0
2014-Jul-15 09:29N 41°29' W 071°19'0 0.0
2014-Jul-15 07:07N 41°29' W 071°19'0 0.0
2014-Jul-15 06:30N 41°29' W 071°19'0 0.0
2014-Jul-15 05:32N 41°29' W 071°19'0 0.0
2014-Jul-15 04:32N 41°29' W 071°19'0 0.0
2014-Jul-15 03:33N 41°29' W 071°19'0 0.0
2014-Jul-15 02:30N 41°29' W 071°19'0 0.0
2014-Jul-14 21:12N 41°29' W 071°19'0 0.0
2014-Jul-14 20:20N 41°29' W 071°19'0 0.0
2014-Jul-14 19:32N 41°29' W 071°19'0 0.0
2014-Jul-14 18:33N 41°29' W 071°19'0 0.0
2014-Jul-14 17:34N 41°29' W 071°19'0 0.0
2014-Jul-14 16:14N 41°29' W 071°19'0 0.0
2014-Jul-14 12:33N 41°29' W 071°19'0 0.0
2014-Jul-14 11:06N 41°29' W 071°19'0 0.0
2014-Jul-14 04:26N 41°29' W 071°19'0 0.0
2014-Jul-14 03:33N 41°29' W 071°19'0 0.0
2014-Jul-14 02:33N 41°29' W 071°19'0 0.0
2014-Jul-14 01:33N 41°29' W 071°19'0 0.0
2014-Jul-14 00:33N 41°29' W 071°19'0 0.0
2014-Jul-13 23:30N 41°29' W 071°19'0 0.1
2014-Jul-13 22:33N 41°29' W 071°19'9 9.4
2014-Jul-13 21:33N 41°22' W 071°27'1111.0
2014-Jul-13 20:34N 41°19' W 071°42'10 9.8
2014-Jul-13 19:34N 41°20' W 071°55'2 2.3
2014-Jul-13 18:34N 41°17' W 071°54'7 7.3
2014-Jul-13 17:34N 41°14' W 071°45'8 7.6
2014-Jul-13 16:34N 41°18' W 071°54'2 2.0
2014-Jul-13 15:33N 41°20' W 071°55'0 0.0
2014-Jul-13 14:33N 41°20' W 071°55'0 0.0
2014-Jul-13 13:34N 41°20' W 071°55'0 0.0
2014-Jul-13 12:33N 41°20' W 071°55'0 0.0
2014-Jul-13 11:33N 41°20' W 071°55'0 0.0
2014-Jul-13 10:33N 41°20' W 071°55'0 0.0
2014-Jul-13 09:34N 41°20' W 071°55'0 0.0
2014-Jul-13 08:33N 41°20' W 071°55'0 0.0
2014-Jul-13 07:33N 41°20' W 071°55'0 0.0
2014-Jul-13 06:33N 41°20' W 071°55'0 0.0
2014-Jul-13 05:33N 41°20' W 071°55'0 0.0
2014-Jul-13 04:33N 41°20' W 071°55'0 0.0
2014-Jul-13 03:34N 41°20' W 071°55'0 0.0
2014-Jul-13 02:33N 41°20' W 071°55'0 0.0
2014-Jul-13 01:33N 41°20' W 071°55'0 0.0
2014-Jul-13 00:34N 41°20' W 071°55'0 0.0
2014-Jul-12 23:34N 41°20' W 071°55'0 0.0
2014-Jul-12 22:34N 41°20' W 071°55'0 0.0
2014-Jul-12 21:34N 41°20' W 071°55'3 2.7
2014-Jul-12 20:34N 41°17' W 071°55'0 0.1
2014-Jul-12 19:34N 41°17' W 071°55'0 0.0
2014-Jul-12 18:34N 41°17' W 071°55'  

Dump ship's entire track history